Big Bear Station Historical Data
Daily Summary for April 30, 2019 Units:  English    Metric   Both
Next Day »
Daily Weekly Monthly Yearly Custom
  High: Low: Average:
Temperature: 55.2 °F 34.0 °F 42.8 °F
Dew Point: 43.5 °F 29.6 °F 36.9 °F
Humidity: 97% 53% 81%
Wind Speed: 7.8mph 0.0mph 2.8mph
Wind Gust: -999.0mph - -
Wind- - WSW
Pressure: 23.40 in 23.34 in -
Precipitation: 0.01 in    
Historical Graphs
 
 
Tabular Data for April 30, 2019
Time Temperature Dew Point Pressure Wind Wind Speed Wind Gust Humidity Rainfall Rate (Hourly)
00:05 38.1 °F 37.3 °F 23.34 in South 1.1 mph -999.0 mph 97% 0.00 in
00:21 38.1 °F 37.3 °F 23.34 in Calm   -999.0 mph 97% 0.00 in
00:36 38.1 °F 37.3 °F 23.34 in ESE 2.7 mph -999.0 mph 97% 0.00 in
00:51 38.1 °F 37.3 °F 23.34 in Calm   -999.0 mph 97% 0.00 in
01:06 38.1 °F 37.1 °F 23.34 in SSE 1.7 mph -999.0 mph 96% 0.00 in
01:21 37.9 °F 36.9 °F 23.34 in Calm   -999.0 mph 96% 0.00 in
01:37 37.8 °F 37.0 °F 23.34 in Calm   -999.0 mph 97% 0.00 in
01:52 37.6 °F 36.8 °F 23.34 in SSW 1.7 mph -999.0 mph 97% 0.00 in
02:07 37.6 °F 36.6 °F 23.34 in Calm   -999.0 mph 96% 0.00 in
02:22 37.4 °F 36.4 °F 23.34 in SSE 3.2 mph -999.0 mph 96% 0.00 in
02:38 37.4 °F 36.4 °F 23.34 in Calm   -999.0 mph 96% 0.00 in
02:53 37.2 °F 36.2 °F 23.34 in Calm   -999.0 mph 96% 0.00 in
03:08 37.2 °F 36.2 °F 23.34 in Calm   -999.0 mph 96% 0.00 in
03:23 37.0 °F 36.0 °F 23.35 in South 2.7 mph -999.0 mph 96% 0.00 in
03:38 37.0 °F 36.0 °F 23.34 in Calm   -999.0 mph 96% 0.00 in
03:54 36.5 °F 35.2 °F 23.34 in NNE 1.1 mph -999.0 mph 95% 0.00 in
04:09 36.3 °F 35.3 °F 23.34 in Calm   -999.0 mph 96% 0.00 in
04:24 35.6 °F 34.8 °F 23.34 in NNW 2.2 mph -999.0 mph 97% 0.00 in
04:39 35.4 °F 34.6 °F 23.34 in West 1.7 mph -999.0 mph 97% 0.00 in
04:55 34.9 °F 34.1 °F 23.34 in Calm   -999.0 mph 97% 0.00 in
05:10 34.7 °F 33.7 °F 23.35 in South 1.7 mph -999.0 mph 96% 0.00 in
05:25 34.9 °F 33.3 °F 23.34 in Calm   -999.0 mph 94% 0.00 in
05:40 34.7 °F 33.2 °F 23.35 in Calm   -999.0 mph 94% 0.00 in
05:56 34.3 °F 32.8 °F 23.35 in Calm   -999.0 mph 94% 0.00 in
06:11 34.0 °F 32.2 °F 23.35 in Calm   -999.0 mph 93% 0.00 in
06:26 34.2 °F 32.1 °F 23.35 in Calm   -999.0 mph 92% 0.00 in
06:41 34.7 °F 32.1 °F 23.35 in Calm   -999.0 mph 90% 0.00 in
06:56 35.6 °F 32.7 °F 23.36 in Calm   -999.0 mph 89% 0.00 in
07:12 36.3 °F 33.1 °F 23.36 in Calm   -999.0 mph 88% 0.00 in
07:27 37.4 °F 33.9 °F 23.36 in ESE 2.2 mph -999.0 mph 87% 0.00 in
07:42 38.3 °F 34.5 °F 23.37 in Calm   -999.0 mph 86% 0.00 in
07:57 39.2 °F 35.4 °F 23.37 in NW 4.7 mph -999.0 mph 86% 0.00 in
08:12 40.3 °F 36.2 °F 23.37 in Calm   -999.0 mph 85% 0.00 in
08:28 40.8 °F 35.7 °F 23.37 in SW 1.1 mph -999.0 mph 82% 0.00 in
08:43 42.1 °F 36.4 °F 23.37 in NNE 2.7 mph -999.0 mph 80% 0.00 in
08:58 43.2 °F 36.5 °F 23.37 in SW 1.1 mph -999.0 mph 77% 0.00 in
09:13 43.7 °F 35.3 °F 23.38 in NW 3.7 mph -999.0 mph 72% 0.00 in
09:28 44.6 °F 35.8 °F 23.38 in NW 6.3 mph -999.0 mph 71% 0.00 in
09:44 45.0 °F 38.2 °F 23.39 in NNE 4.7 mph -999.0 mph 77% 0.00 in
09:59 45.3 °F 38.2 °F 23.39 in NW 5.8 mph -999.0 mph 76% 0.00 in
10:14 45.5 °F 39.0 °F 23.39 in WNW 6.8 mph -999.0 mph 78% 0.00 in
10:30 46.2 °F 40.4 °F 23.39 in NW 5.3 mph -999.0 mph 80% 0.00 in
10:45 47.7 °F 39.5 °F 23.39 in NNW 6.3 mph -999.0 mph 73% 0.00 in
11:00 48.9 °F 40.3 °F 23.40 in NW 7.8 mph -999.0 mph 72% 0.00 in
11:15 48.7 °F 40.8 °F 23.40 in NW 5.3 mph -999.0 mph 74% 0.00 in
11:31 49.6 °F 40.6 °F 23.40 in NW 5.3 mph -999.0 mph 71% 0.00 in
11:46 50.9 °F 41.5 °F 23.40 in NW 6.8 mph -999.0 mph 70% 0.00 in
12:01 50.5 °F 43.2 °F 23.40 in NW 6.8 mph -999.0 mph 76% 0.00 in
12:16 51.1 °F 43.5 °F 23.40 in NNW 7.3 mph -999.0 mph 75% 0.00 in
12:31 50.9 °F 42.9 °F 23.40 in NNW 7.3 mph -999.0 mph 74% 0.00 in
12:47 52.5 °F 39.4 °F 23.40 in North 6.3 mph -999.0 mph 61% 0.00 in
13:02 53.4 °F 38.5 °F 23.40 in NNW 5.8 mph -999.0 mph 57% 0.00 in
13:17 54.0 °F 40.4 °F 23.40 in NNW 6.8 mph -999.0 mph 60% 0.00 in
13:33 53.8 °F 40.2 °F 23.40 in NW 6.8 mph -999.0 mph 60% 0.00 in
13:48 54.7 °F 40.7 °F 23.40 in NNW 6.3 mph -999.0 mph 59% 0.00 in
14:03 55.2 °F 38.4 °F 23.40 in NW 5.8 mph -999.0 mph 53% 0.00 in
14:18 54.3 °F 39.8 °F 23.40 in West 4.7 mph -999.0 mph 58% 0.00 in
14:34 54.9 °F 39.5 °F 23.40 in NNW 6.3 mph -999.0 mph 56% 0.00 in
14:49 54.7 °F 39.8 °F 23.40 in NW 5.8 mph -999.0 mph 57% 0.00 in
15:04 54.5 °F 37.7 °F 23.40 in NW 5.8 mph -999.0 mph 53% 0.00 in
15:20 55.0 °F 39.6 °F 23.40 in NW 5.3 mph -999.0 mph 56% 0.00 in
15:35 53.2 °F 37.0 °F 23.39 in NW 2.7 mph -999.0 mph 54% 0.00 in
15:50 53.6 °F 39.2 °F 23.39 in WNW 4.7 mph -999.0 mph 58% 0.00 in
16:05 52.7 °F 39.2 °F 23.39 in NNW 5.3 mph -999.0 mph 60% 0.00 in
16:20 52.3 °F 39.2 °F 23.39 in NW 6.3 mph -999.0 mph 61% 0.00 in
16:36 52.3 °F 39.2 °F 23.39 in West 4.2 mph -999.0 mph 61% 0.00 in
16:52 54.3 °F 39.8 °F 23.38 in NNW 5.8 mph -999.0 mph 58% 0.00 in
17:07 54.1 °F 40.9 °F 23.38 in NW 5.3 mph -999 mph 61% 0.00 in
17:22 53.1 °F 40.8 °F 23.38 in North 6.8 mph -999 mph 63% 0.00 in
17:37 52.9 °F 41.5 °F 23.38 in NW 4.2 mph -999 mph 65% 0.00 in
17:53 51.3 °F 41.1 °F 23.37 in WSW 3.7 mph -999 mph 68% 0.00 in
18:08 51.6 °F 41 °F 23.37 in NW 4.7 mph -999 mph 67% 0.00 in
18:24 48.9 °F 40.3 °F 23.37 in NNE 3.7 mph -999 mph 72% 0.00 in
18:40 43.5 °F 38.7 °F 23.37 in NNW 4.7 mph -999 mph 83% 0.00 in
18:55 42.4 °F 38.2 °F 23.38 in Calm   -999 mph 85% 0.00 in
19:10 41.5 °F 37 °F 23.38 in NE 1.7 mph -999 mph 84% 0.00 in
19:25 40.5 °F 36 °F 23.38 in Calm   -999 mph 84% 0.00 in
19:41 39.7 °F 35.9 °F 23.38 in ESE 1.7 mph -999 mph 86% 0.00 in
19:56 39 °F 35.5 °F 23.38 in NE 1.7 mph -999 mph 87% 0.00 in
20:11 38.7 °F 35.5 °F 23.37 in Calm   -999 mph 88% 0.00 in
20:26 37.9 °F 35.2 °F 23.37 in Calm   -999 mph 90% 0.00 in
20:41 37.9 °F 35.5 °F 23.38 in SSE 2.7 mph -999 mph 91% 0.00 in
20:57 38.1 °F 36.3 °F 23.38 in NNW 2.2 mph -999 mph 93% 0.00 in
21:12 37.8 °F 36 °F 23.39 in NNW 2.2 mph -999 mph 93% 0.00 in
21:27 37.4 °F 35.3 °F 23.40 in Calm   -999 mph 92% 0.00 in
21:42 36.7 °F 34.6 °F 23.40 in Calm   -999 mph 92% 0.00 in
21:57 36 °F 34.2 °F 23.40 in Calm   -999 mph 93% 0.00 in
22:13 35.4 °F 33.8 °F 23.40 in Calm   -999 mph 94% 0.00 in
22:28 34.9 °F 33.3 °F 23.40 in Calm   -999 mph 94% 0.00 in
22:43 34.9 °F 33.3 °F 23.40 in Calm   -999 mph 94% 0.00 in
22:58 34.9 °F 33.1 °F 23.40 in SSE 2.2 mph -999 mph 93% 0.00 in
23:13 34.5 °F 29.9 °F 23.40 in Calm   -999 mph 83% 0.00 in
23:29 34.2 °F 29.6 °F 23.40 in SE 2.2 mph -999 mph 83% 0.00 in
23:44 34.2 °F 29.9 °F 23.40 in Calm   -999 mph 84% 0.00 in
Big Bear CA Weather